createdAt,value
2023-04-13T00:07:41.144Z,450.13
2023-04-13T00:13:21.230Z,451.37
2023-04-13T00:19:03.796Z,451.71
2023-04-13T00:25:01.535Z,452.14
2023-04-13T00:30:44.293Z,453.51
2023-04-13T00:36:27.492Z,454.30
2023-04-13T00:42:27.291Z,455.22
2023-04-13T00:48:18.480Z,455.39
2023-04-13T00:59:57.034Z,454.81
2023-04-13T01:05:39.609Z,453.04
2023-04-13T01:12:15.107Z,452.18
2023-04-13T01:17:57.799Z,452.04
2023-04-13T01:23:40.222Z,452.06
2023-04-13T01:29:37.572Z,453.71
2023-04-13T01:39:58.310Z,452.23
2023-04-13T01:45:06.430Z,451.67
2023-04-13T01:50:13.771Z,450.72
2023-04-13T01:55:34.096Z,450.98
2023-04-13T02:00:51.514Z,453.63
2023-04-13T02:06:31.048Z,452.73
2023-04-13T02:12:28.653Z,451.77
2023-04-13T02:17:43.303Z,452.49
2023-04-13T02:22:56.282Z,452.71
2023-04-13T02:28:03.815Z,451.98
2023-04-13T02:33:12.639Z,451.49
2023-04-13T02:38:35.136Z,451.55
2023-04-13T02:43:42.734Z,452.09
2023-04-13T02:48:50.070Z,452.65
2023-04-13T02:53:58.013Z,451.92
2023-04-13T02:59:40.843Z,450.80
2023-04-13T03:05:23.787Z,451.91
2023-04-13T03:11:56.966Z,451.76
2023-04-13T03:15:44.278Z,451.85
2023-04-13T03:20:51.640Z,452.10
2023-04-13T03:25:58.904Z,451.13
2023-04-13T03:31:06.352Z,452.20
2023-04-13T03:36:13.448Z,452.32
2023-04-13T03:41:20.633Z,452.47
2023-04-13T03:46:27.937Z,451.82
2023-04-13T03:51:35.269Z,451.69
2023-04-13T03:56:42.484Z,452.14
2023-04-13T04:01:49.915Z,452.59
2023-04-13T04:06:57.064Z,452.05
2023-04-13T04:12:04.239Z,453.11
2023-04-13T04:17:11.448Z,452.21
2023-04-13T04:22:18.664Z,452.64
2023-04-13T04:27:25.912Z,452.12
2023-04-13T04:32:33.167Z,451.48
2023-04-13T04:37:40.395Z,451.67
2023-04-13T04:42:47.667Z,451.67
2023-04-13T04:47:54.974Z,449.37
2023-04-13T04:53:02.152Z,450.98
2023-04-13T04:58:09.322Z,450.03
2023-04-13T05:03:16.636Z,449.56
2023-04-13T05:08:23.782Z,450.21
2023-04-13T05:13:31.086Z,449.77
2023-04-13T05:18:38.277Z,450.29
2023-04-13T05:23:45.432Z,448.49
2023-04-13T05:28:52.752Z,449.03
2023-04-13T05:34:00.139Z,447.85
2023-04-13T05:39:07.197Z,447.68
2023-04-13T05:44:14.374Z,447.10
2023-04-13T05:49:21.628Z,447.37
2023-04-13T05:54:28.758Z,446.46
2023-04-13T05:59:35.942Z,446.62
2023-04-13T06:04:43.210Z,446.21
2023-04-13T06:09:50.293Z,446.29
2023-04-13T06:14:57.466Z,445.17
2023-04-13T06:20:04.715Z,445.99
2023-04-13T06:25:11.865Z,446.64
2023-04-13T06:30:19.095Z,446.04
2023-04-13T06:35:26.267Z,446.77
2023-04-13T06:40:33.422Z,446.27
2023-04-13T06:45:41.384Z,446.39
2023-04-13T06:50:48.604Z,445.84
2023-04-13T06:55:55.756Z,445.64
2023-04-13T07:01:03.197Z,445.80
2023-04-13T07:06:10.282Z,446.55
2023-04-13T07:11:17.515Z,446.62
2023-04-13T07:16:24.762Z,446.55
2023-04-13T07:21:31.958Z,445.17
2023-04-13T07:26:39.083Z,445.09
2023-04-13T07:31:46.324Z,445.53
2023-04-13T07:36:53.501Z,445.32
2023-04-13T07:42:00.745Z,445.49
2023-04-13T07:47:08.084Z,445.68
2023-04-13T07:52:15.240Z,445.35
2023-04-13T07:57:22.424Z,445.42
2023-04-13T08:02:29.899Z,446.22
2023-04-13T08:07:37.020Z,446.63
2023-04-13T08:12:44.299Z,446.46
2023-04-13T08:17:51.595Z,446.07
2023-04-13T08:22:58.857Z,445.54
2023-04-13T08:28:06.169Z,445.22
2023-04-13T08:33:13.443Z,445.44
2023-04-13T08:38:20.681Z,446.58
2023-04-13T08:43:27.879Z,447.30
2023-04-13T08:48:50.032Z,446.59
2023-04-13T08:53:42.460Z,446.89
2023-04-13T08:58:49.514Z,447.62
2023-04-13T09:03:56.833Z,449.39
2023-04-13T09:09:03.893Z,449.62
2023-04-13T09:14:11.102Z,449.38
2023-04-13T09:19:18.272Z,449.49
2023-04-13T09:24:25.556Z,449.82
2023-04-13T09:29:32.729Z,450.19
2023-04-13T09:34:39.889Z,450.87
2023-04-13T09:39:47.121Z,451.78
2023-04-13T09:44:54.295Z,451.72
2023-04-13T09:50:01.543Z,451.73
2023-04-13T09:55:08.781Z,452.53
2023-04-13T10:00:17.719Z,453.42
2023-04-13T10:05:23.297Z,453.68
2023-04-13T10:10:30.560Z,452.77
2023-04-13T10:15:37.890Z,452.99
2023-04-13T10:20:45.082Z,453.05
2023-04-13T10:25:52.414Z,452.99
2023-04-13T10:30:59.660Z,453.66
2023-04-13T10:36:06.829Z,453.74
2023-04-13T10:41:14.033Z,454.03
2023-04-13T10:46:21.220Z,453.84
2023-04-13T10:51:28.373Z,453.61
2023-04-13T10:56:35.624Z,453.23
2023-04-13T11:01:42.812Z,453.68
2023-04-13T11:06:49.967Z,453.47
2023-04-13T11:12:32.444Z,452.71
2023-04-13T11:17:39.832Z,452.20
2023-04-13T11:22:50.202Z,452.79
2023-04-13T11:27:58.485Z,452.19
2023-04-13T11:33:05.978Z,451.90
2023-04-13T11:38:13.333Z,451.93
2023-04-13T11:43:20.747Z,453.16
2023-04-13T11:48:28.041Z,453.98
2023-04-13T11:53:35.348Z,455.61
2023-04-13T11:58:42.581Z,456.06
2023-04-13T12:09:02.754Z,456.54
2023-04-13T12:14:10.245Z,456.35
2023-04-13T12:19:13.524Z,455.58
2023-04-13T12:24:18.974Z,455.69
2023-04-13T12:29:25.828Z,455.90
2023-04-13T12:34:33.026Z,456.34
2023-04-13T12:39:40.246Z,455.45
2023-04-13T12:44:47.587Z,455.82
2023-04-13T12:49:54.737Z,455.66
2023-04-13T12:55:02.252Z,455.36
2023-04-13T13:00:12.922Z,454.96
2023-04-13T13:05:19.239Z,454.71
2023-04-13T13:10:30.000Z,454.73
2023-04-13T13:15:34.077Z,454.42
2023-04-13T13:20:41.688Z,453.96
2023-04-13T13:26:07.571Z,454.85
2023-04-13T13:30:56.223Z,454.96
2023-04-13T13:36:05.577Z,454.68
2023-04-13T13:41:24.345Z,454.93
2023-04-13T13:46:26.038Z,454.75
2023-04-13T13:51:33.705Z,454.54
2023-04-13T13:56:41.393Z,454.30
2023-04-13T14:01:49.056Z,454.74
2023-04-13T14:06:56.329Z,455.62
2023-04-13T14:12:03.604Z,456.03
2023-04-13T14:17:14.233Z,457.12
2023-04-13T14:22:26.521Z,457.06
2023-04-13T14:27:48.971Z,458.09
2023-04-13T14:33:01.476Z,458.77
2023-04-13T14:38:30.024Z,459.30
2023-04-13T14:43:21.627Z,459.65
2023-04-13T14:48:29.251Z,459.34
2023-04-13T14:53:36.417Z,458.90
2023-04-13T14:58:43.646Z,458.34
2023-04-13T15:03:51.155Z,458.02
2023-04-13T15:08:58.789Z,458.71
2023-04-13T15:14:05.566Z,459.61
2023-04-13T15:19:17.709Z,459.15
2023-04-13T15:24:24.970Z,458.58
2023-04-13T15:29:32.365Z,458.83
2023-04-13T15:34:39.601Z,458.92
2023-04-13T15:39:49.581Z,460.20
2023-04-13T15:44:55.420Z,458.26
2023-04-13T15:50:02.577Z,458.06
2023-04-13T15:55:10.024Z,457.85
2023-04-13T16:00:17.517Z,457.04
2023-04-13T16:05:24.905Z,456.74
2023-04-13T16:10:32.113Z,457.27
2023-04-13T16:15:42.363Z,458.07
2023-04-13T16:20:49.156Z,457.68
2023-04-13T16:25:56.507Z,456.86
2023-04-13T16:31:03.836Z,456.93
2023-04-13T16:36:11.110Z,455.71
2023-04-13T16:41:19.369Z,454.55
2023-04-13T16:46:26.751Z,454.22
2023-04-13T16:51:33.999Z,454.77
2023-04-13T16:56:41.210Z,455.27
2023-04-13T17:01:49.252Z,454.59
2023-04-13T17:06:56.565Z,453.84
2023-04-13T17:12:04.013Z,453.90
2023-04-13T17:17:11.472Z,453.62
2023-04-13T17:22:18.730Z,453.30
2023-04-13T17:27:26.567Z,453.09
2023-04-13T17:32:34.300Z,452.49
2023-04-13T17:37:41.592Z,452.26
2023-04-13T17:42:48.747Z,451.74
2023-04-13T17:47:57.138Z,451.46
2023-04-13T17:53:04.808Z,450.94
2023-04-13T17:58:12.031Z,450.55
2023-04-13T18:03:20.198Z,450.17
2023-04-13T18:08:27.507Z,449.58
2023-04-13T18:13:35.194Z,449.65
2023-04-13T18:18:42.902Z,448.96
2023-04-13T18:23:50.547Z,447.93
2023-04-13T18:28:58.145Z,447.81
2023-04-13T18:34:06.174Z,447.66
2023-04-13T18:39:13.600Z,447.20
2023-04-13T18:44:20.904Z,447.08
2023-04-13T18:49:28.293Z,446.79
2023-04-13T18:54:35.822Z,446.18
2023-04-13T18:59:43.173Z,444.99
2023-04-13T19:04:50.591Z,444.47
2023-04-13T19:09:58.102Z,444.33
2023-04-13T19:15:05.751Z,444.15
2023-04-13T19:20:13.563Z,443.60
2023-04-13T19:25:21.223Z,443.16
2023-04-13T19:30:28.929Z,443.03
2023-04-13T19:35:36.593Z,443.80
2023-04-13T19:40:45.533Z,444.27
2023-04-13T19:45:53.200Z,443.59
2023-04-13T19:51:00.852Z,443.05
2023-04-13T19:56:08.450Z,443.04
2023-04-13T20:01:16.073Z,443.68
2023-04-13T20:06:24.046Z,444.22
2023-04-13T20:11:31.413Z,443.79
2023-04-13T20:16:38.704Z,443.73
2023-04-13T20:21:46.271Z,443.85
2023-04-13T20:26:53.753Z,443.80
2023-04-13T20:32:01.227Z,444.19
2023-04-13T20:37:08.651Z,444.41
2023-04-13T20:42:17.487Z,445.01
2023-04-13T20:47:26.391Z,445.58
2023-04-13T20:52:33.614Z,445.10
2023-04-13T20:57:40.812Z,445.42
2023-04-13T21:02:48.116Z,445.49
2023-04-13T21:07:57.448Z,445.25
2023-04-13T21:13:06.576Z,445.86
2023-04-13T21:18:13.846Z,446.28
2023-04-13T21:23:21.332Z,445.33
2023-04-13T21:28:28.645Z,445.85
2023-04-13T21:33:35.872Z,446.77
2023-04-13T21:38:43.187Z,446.84
2023-04-13T21:44:02.232Z,446.24
2023-04-13T21:49:47.500Z,445.42
2023-04-13T21:55:31.601Z,446.23
2023-04-13T22:01:19.343Z,446.50
2023-04-13T22:06:48.537Z,446.71
2023-04-13T22:12:31.157Z,445.79
2023-04-13T22:18:12.430Z,445.46
2023-04-13T22:23:11.896Z,444.85
2023-04-13T22:28:28.970Z,444.92
2023-04-13T22:33:41.681Z,446.14
2023-04-13T22:39:30.349Z,446.51
2023-04-13T22:49:33.491Z,445.80
2023-04-13T22:50:49.158Z,444.30
2023-04-13T22:55:30.539Z,444.53
2023-04-13T23:01:59.266Z,445.40
2023-04-13T23:06:38.314Z,444.99
2023-04-13T23:11:53.734Z,445.19
2023-04-13T23:17:16.562Z,445.09
2023-04-13T23:22:23.982Z,446.05
2023-04-13T23:27:33.714Z,445.82
2023-04-13T23:32:51.528Z,444.90
2023-04-13T23:37:54.269Z,443.82
2023-04-13T23:43:01.587Z,444.38
2023-04-13T23:48:08.789Z,444.86
2023-04-13T23:53:16.099Z,444.24
2023-04-13T23:58:23.363Z,444.56
